createdAt,value
2016-10-15T00:00:00.089Z,0
2016-10-15T00:00:40.630Z,0
2016-10-15T00:01:21.166Z,0
2016-10-15T00:02:01.713Z,0
2016-10-15T00:02:42.301Z,0
2016-10-15T00:03:22.842Z,0
2016-10-15T00:04:03.427Z,0
2016-10-15T00:04:43.971Z,0
2016-10-15T00:05:24.508Z,0
2016-10-15T00:06:05.050Z,0
2016-10-15T00:06:45.588Z,0
2016-10-15T00:07:26.183Z,0
2016-10-15T00:08:06.777Z,0
2016-10-15T00:08:47.314Z,0
2016-10-15T00:09:27.856Z,0
2016-10-15T00:10:08.447Z,0
2016-10-15T00:10:49.041Z,0
2016-10-15T00:11:29.627Z,0
2016-10-15T00:12:10.173Z,0
2016-10-15T00:12:50.718Z,0
2016-10-15T00:13:31.306Z,0
2016-10-15T00:14:11.895Z,0
2016-10-15T00:14:52.487Z,0
2016-10-15T00:15:33.065Z,0
2016-10-15T00:16:13.611Z,0
2016-10-15T00:16:54.148Z,0
2016-10-15T00:17:34.687Z,0
2016-10-15T00:18:15.272Z,0
2016-10-15T00:18:55.856Z,0
2016-10-15T00:19:36.439Z,0
2016-10-15T00:20:16.983Z,0
2016-10-15T00:20:57.569Z,0
2016-10-15T00:21:38.106Z,0
2016-10-15T00:22:18.649Z,0
2016-10-15T00:22:59.237Z,0
2016-10-15T00:23:39.780Z,0
2016-10-15T00:24:20.321Z,0
2016-10-15T00:25:00.905Z,0
2016-10-15T00:25:41.502Z,0
2016-10-15T00:26:22.038Z,0
2016-10-15T00:27:02.582Z,0
2016-10-15T00:27:43.125Z,0
2016-10-15T00:28:23.713Z,0
2016-10-15T00:29:04.300Z,0
2016-10-15T00:29:44.843Z,0
2016-10-15T00:30:25.432Z,0
2016-10-15T00:31:05.962Z,0
2016-10-15T00:31:46.515Z,0
2016-10-15T00:32:27.104Z,0
2016-10-15T00:33:07.642Z,0
2016-10-15T00:33:48.177Z,0
2016-10-15T00:34:28.760Z,0
2016-10-15T00:35:09.307Z,0
2016-10-15T00:35:49.837Z,0
2016-10-15T00:36:30.385Z,0
2016-10-15T00:37:10.923Z,0
2016-10-15T00:37:51.463Z,0
2016-10-15T00:38:32.009Z,0
2016-10-15T00:39:12.546Z,0
2016-10-15T00:39:53.101Z,0
2016-10-15T00:40:33.685Z,0
2016-10-15T05:22:23.321Z,0
2016-10-15T05:23:04.176Z,0
2016-10-15T05:23:44.984Z,0
2016-10-15T05:24:25.949Z,0
2016-10-15T05:25:06.682Z,0
2016-10-15T05:25:47.265Z,0
2016-10-15T05:26:27.800Z,0
2016-10-15T05:27:08.385Z,0
2016-10-15T05:27:49.291Z,0
2016-10-15T05:28:29.873Z,0
2016-10-15T05:29:10.396Z,0
2016-10-15T05:29:50.932Z,0
2016-10-15T05:30:31.515Z,0
2016-10-15T05:31:12.432Z,0
2016-10-15T05:31:53.192Z,0
2016-10-15T05:32:33.742Z,0
2016-10-15T05:33:14.328Z,0
2016-10-15T05:33:55.315Z,0
2016-10-15T05:34:35.896Z,0
2016-10-15T05:35:16.433Z,0
2016-10-15T05:35:56.973Z,0
2016-10-15T05:36:37.510Z,0
2016-10-15T05:37:18.039Z,0
2016-10-15T05:37:58.573Z,0
2016-10-15T05:38:39.114Z,0
2016-10-15T05:39:19.653Z,0
2016-10-15T05:40:00.186Z,160
2016-10-15T05:40:40.731Z,156
2016-10-15T05:41:21.267Z,156
2016-10-15T05:42:01.795Z,160
2016-10-15T05:42:42.322Z,160
2016-10-15T05:43:22.907Z,164
2016-10-15T05:44:03.492Z,168
2016-10-15T05:44:44.020Z,172
2016-10-15T05:47:21.116Z,192
2016-10-15T05:48:01.648Z,200
2016-10-15T05:48:42.190Z,208
2016-10-15T05:49:22.727Z,220
2016-10-15T05:50:03.268Z,236
2016-10-15T05:50:43.804Z,252
2016-10-15T05:51:24.343Z,268
2016-10-15T05:52:04.878Z,288
2016-10-15T05:52:45.418Z,308
2016-10-15T05:53:25.953Z,324
2016-10-15T05:54:06.492Z,340
2016-10-15T05:54:47.025Z,356
2016-10-15T05:55:27.557Z,376
2016-10-15T05:56:08.098Z,392
2016-10-15T05:56:48.640Z,412
2016-10-15T05:57:29.170Z,424
2016-10-15T05:58:09.706Z,444
2016-10-15T05:58:50.246Z,464
2016-10-15T05:59:30.779Z,484
2016-10-15T06:00:11.307Z,508
2016-10-15T06:00:51.841Z,536
2016-10-15T06:01:32.377Z,560
2016-10-15T06:02:12.922Z,580
2016-10-15T06:02:53.451Z,604
2016-10-15T06:03:33.993Z,624
2016-10-15T06:04:14.533Z,640
2016-10-15T06:04:55.067Z,656
2016-10-15T06:05:35.603Z,668
2016-10-15T06:06:16.137Z,684
2016-10-15T06:06:56.675Z,696
2016-10-15T06:07:37.213Z,716
2016-10-15T06:08:17.754Z,736
2016-10-15T06:08:58.294Z,748
2016-10-15T06:09:38.828Z,768
2016-10-15T06:10:19.370Z,800
2016-10-15T06:10:59.903Z,840
2016-10-15T06:11:40.445Z,876
2016-10-15T06:12:20.978Z,900
2016-10-15T06:13:01.520Z,920
2016-10-15T06:13:42.054Z,936
2016-10-15T06:14:22.591Z,944
2016-10-15T06:15:03.137Z,948
2016-10-15T06:15:43.672Z,948
2016-10-15T06:16:24.208Z,944
2016-10-15T06:17:04.751Z,936
2016-10-15T06:17:45.289Z,920
2016-10-15T06:18:25.832Z,908
2016-10-15T06:19:06.368Z,896
2016-10-15T06:19:47.267Z,896
2016-10-15T06:20:28.711Z,896
2016-10-15T06:21:09.325Z,904
2016-10-15T06:21:49.868Z,912
2016-10-15T06:22:30.404Z,924
2016-10-15T06:23:10.944Z,940
2016-10-15T06:23:51.486Z,960
2016-10-15T06:24:32.017Z,980
2016-10-15T06:25:12.548Z,1004
2016-10-15T06:25:53.089Z,1028
2016-10-15T06:26:33.802Z,1052
2016-10-15T06:27:14.343Z,1068
2016-10-15T06:27:55.031Z,1080
2016-10-15T06:28:35.721Z,1088
2016-10-15T06:29:16.258Z,1088
2016-10-15T06:29:56.853Z,1092
2016-10-15T06:30:37.391Z,1088
2016-10-15T06:31:17.939Z,1092
2016-10-15T06:31:58.467Z,1092
2016-10-15T06:32:38.996Z,1088
2016-10-15T06:33:19.589Z,1088
2016-10-15T06:34:00.147Z,1080
2016-10-15T06:34:40.718Z,1072
2016-10-15T06:35:21.274Z,1064
2016-10-15T06:36:01.810Z,1052
2016-10-15T06:36:42.352Z,1052
2016-10-15T06:37:22.875Z,1052
2016-10-15T06:38:03.402Z,1052
2016-10-15T06:38:43.937Z,1056
2016-10-15T06:39:24.477Z,1060
2016-10-15T06:40:05.015Z,1068
2016-10-15T06:40:45.598Z,1076
2016-10-15T06:41:26.367Z,1088
2016-10-15T06:42:06.904Z,1100
2016-10-15T06:42:47.433Z,1120
2016-10-15T06:43:27.965Z,1144
2016-10-15T06:44:08.497Z,1164
2016-10-15T06:44:49.037Z,1184
2016-10-15T06:45:29.571Z,1200
2016-10-15T06:46:10.107Z,1212
2016-10-15T06:46:50.642Z,1212
2016-10-15T06:47:31.190Z,1216
2016-10-15T06:48:11.731Z,1212
2016-10-15T06:48:52.269Z,1208
2016-10-15T06:49:32.801Z,1208
2016-10-15T06:50:13.343Z,1204
2016-10-15T06:50:53.897Z,1196
2016-10-15T06:51:34.443Z,1192
2016-10-15T06:52:14.979Z,1168
2016-10-15T06:52:55.515Z,1148
2016-10-15T06:53:36.045Z,1132
2016-10-15T06:54:16.581Z,1116
2016-10-15T06:54:57.118Z,1108
2016-10-15T06:55:37.655Z,1100
2016-10-15T06:56:18.243Z,1104
2016-10-15T06:56:58.785Z,1116
2016-10-15T06:57:39.323Z,1120
2016-10-15T06:58:19.859Z,1132
2016-10-15T06:59:00.376Z,1140
2016-10-15T06:59:40.905Z,1156
2016-10-15T07:00:21.452Z,1180
2016-10-15T07:01:01.979Z,1212
2016-10-15T07:01:42.562Z,1244
2016-10-15T07:02:23.098Z,1284
2016-10-15T07:03:03.640Z,1328
2016-10-15T07:03:44.183Z,1368
2016-10-15T07:04:24.720Z,1408
2016-10-15T07:05:05.257Z,1456
2016-10-15T07:05:45.782Z,1500
2016-10-15T07:06:26.316Z,1544
2016-10-15T07:07:06.856Z,1584
2016-10-15T07:07:47.394Z,1624
2016-10-15T07:08:27.940Z,1648
2016-10-15T07:09:08.478Z,1668
2016-10-15T07:09:49.009Z,1668
2016-10-15T07:10:29.548Z,1660
2016-10-15T07:11:10.095Z,1640
2016-10-15T07:11:50.882Z,1612
2016-10-15T07:12:31.419Z,1592
2016-10-15T07:13:11.954Z,1568
2016-10-15T07:13:52.492Z,1544
2016-10-15T07:14:33.013Z,1528
2016-10-15T07:17:28.719Z,280
2016-10-15T07:18:09.256Z,36
2016-10-15T07:33:25.519Z,300
2016-10-15T07:34:06.093Z,300
2016-10-15T07:34:46.682Z,304
2016-10-15T07:35:27.244Z,308
2016-10-15T07:36:07.833Z,308
2016-10-15T07:36:48.406Z,312
2016-10-15T07:37:28.986Z,316
2016-10-15T07:38:09.552Z,320
2016-10-15T07:38:50.125Z,320
2016-10-15T07:39:30.709Z,324
2016-10-15T07:40:11.288Z,328
2016-10-15T07:40:51.872Z,332
2016-10-15T07:41:32.456Z,336
2016-10-15T07:42:13.029Z,344
2016-10-15T07:42:53.724Z,348
2016-10-15T07:43:34.366Z,348
2016-10-15T07:44:15.005Z,356
2016-10-15T07:44:55.592Z,360
2016-10-15T07:45:36.667Z,368
2016-10-15T07:46:17.472Z,376
2016-10-15T07:46:58.064Z,392
2016-10-15T07:47:38.643Z,408
2016-10-15T07:48:19.219Z,416
2016-10-15T07:48:59.802Z,424
2016-10-15T07:49:40.380Z,428
2016-10-15T07:50:20.979Z,504
2016-10-15T07:51:01.555Z,508
2016-10-15T07:51:42.140Z,508
2016-10-15T07:52:22.728Z,416
2016-10-15T07:53:03.307Z,416
2016-10-15T07:53:43.890Z,420
2016-10-15T07:54:24.467Z,400
2016-10-15T07:55:05.051Z,220
2016-10-15T07:55:45.632Z,216
2016-10-15T07:56:26.223Z,220
2016-10-15T07:57:06.808Z,224
2016-10-15T07:57:47.378Z,224
2016-10-15T07:58:27.965Z,228
2016-10-15T07:59:08.544Z,228
2016-10-15T07:59:49.133Z,228
2016-10-15T08:00:29.707Z,224
2016-10-15T08:01:10.251Z,228
2016-10-15T08:01:50.793Z,228
2016-10-15T08:02:31.327Z,224
2016-10-15T08:03:11.857Z,228
2016-10-15T08:03:52.392Z,224
2016-10-15T08:04:32.923Z,220
2016-10-15T08:05:13.455Z,216
2016-10-15T08:05:53.994Z,220
2016-10-15T08:06:34.526Z,216
2016-10-15T08:07:15.062Z,212
2016-10-15T08:07:55.590Z,216
2016-10-15T08:08:36.132Z,216
2016-10-15T08:09:16.657Z,220
2016-10-15T08:09:57.193Z,220
2016-10-15T08:10:37.730Z,220
2016-10-15T08:11:18.269Z,224
2016-10-15T08:11:58.800Z,224
2016-10-15T08:12:39.331Z,228
2016-10-15T08:13:19.866Z,228
2016-10-15T08:14:00.402Z,228
2016-10-15T08:14:40.937Z,228
2016-10-15T08:15:21.477Z,228
2016-10-15T08:16:02.007Z,232
2016-10-15T08:16:42.547Z,232
2016-10-15T08:17:23.086Z,232
2016-10-15T08:18:03.617Z,236
2016-10-15T08:18:44.151Z,240
2016-10-15T08:19:24.674Z,240
2016-10-15T08:20:05.209Z,244
2016-10-15T08:20:45.736Z,248
2016-10-15T08:21:26.274Z,252
2016-10-15T08:22:06.810Z,260
2016-10-15T08:22:47.346Z,264
2016-10-15T08:23:27.885Z,268
2016-10-15T08:24:08.418Z,276
2016-10-15T08:24:48.956Z,280
2016-10-15T08:25:29.483Z,292
2016-10-15T08:26:10.012Z,296
2016-10-15T08:26:50.547Z,304
2016-10-15T08:27:31.085Z,300
2016-10-15T08:28:11.623Z,296
2016-10-15T08:28:52.153Z,296
2016-10-15T08:29:32.692Z,292
2016-10-15T08:30:13.233Z,288
2016-10-15T08:30:53.768Z,284
2016-10-15T08:31:34.289Z,288
2016-10-15T08:32:14.828Z,292
2016-10-15T08:32:55.352Z,292
2016-10-15T08:33:35.894Z,296
2016-10-15T08:34:16.433Z,308
2016-10-15T08:34:56.967Z,320
2016-10-15T08:35:37.507Z,336
2016-10-15T08:36:18.040Z,356
2016-10-15T08:36:58.570Z,384
2016-10-15T08:37:39.101Z,412
2016-10-15T08:38:19.636Z,452
2016-10-15T08:39:00.169Z,500
2016-10-15T08:39:40.712Z,552
2016-10-15T08:40:21.245Z,612
2016-10-15T08:41:01.778Z,692
2016-10-15T08:41:42.410Z,792
2016-10-15T08:42:23.075Z,884
2016-10-15T08:43:03.900Z,980
2016-10-15T08:43:44.421Z,1080
2016-10-15T08:44:25.446Z,1184
2016-10-15T08:45:06.192Z,1304
2016-10-15T08:45:47.218Z,1412
2016-10-15T08:46:28.104Z,1452
2016-10-15T08:47:09.412Z,1512
2016-10-15T08:47:50.737Z,1592
2016-10-15T08:48:32.344Z,1712
2016-10-15T08:49:12.879Z,1808
2016-10-15T08:49:53.419Z,1948
2016-10-15T08:50:33.974Z,2096
2016-10-15T08:51:14.511Z,1932
2016-10-15T08:51:55.136Z,2196
2016-10-15T08:52:35.769Z,2184
2016-10-15T08:53:16.367Z,1928
2016-10-15T08:53:56.896Z,2000
2016-10-15T08:54:37.434Z,3068
2016-10-15T08:55:17.986Z,2388
2016-10-15T08:55:58.562Z,2388
2016-10-15T08:56:39.163Z,2432
2016-10-15T08:57:19.719Z,3004
2016-10-15T08:58:00.244Z,2624
2016-10-15T08:58:40.788Z,2256
2016-10-15T08:59:21.317Z,2136
2016-10-15T09:00:01.861Z,2024
2016-10-15T09:00:42.399Z,2104
2016-10-15T09:01:22.942Z,1760
2016-10-15T09:02:03.471Z,1708
2016-10-15T09:02:44.043Z,1708
2016-10-15T09:03:24.639Z,1696
2016-10-15T09:04:05.178Z,1588
2016-10-15T09:04:45.720Z,1524
2016-10-15T09:05:26.251Z,1504
2016-10-15T09:06:06.798Z,1524
2016-10-15T09:06:47.346Z,1588
2016-10-15T09:07:27.919Z,1680
2016-10-15T09:08:08.451Z,2108
2016-10-15T09:08:48.987Z,2052
2016-10-15T09:09:29.572Z,2040
2016-10-15T09:10:10.126Z,1912
2016-10-15T09:10:50.672Z,1796
2016-10-15T09:11:31.209Z,1688
2016-10-15T09:12:11.743Z,1624
2016-10-15T09:12:52.279Z,1560
2016-10-15T09:13:32.814Z,1592
2016-10-15T09:14:13.350Z,1596
2016-10-15T09:14:53.886Z,1632
2016-10-15T09:15:34.421Z,1672
2016-10-15T09:16:15.064Z,1736
2016-10-15T09:16:55.602Z,1948
2016-10-15T09:17:36.143Z,2256
2016-10-15T09:18:16.679Z,2512
2016-10-15T09:18:57.223Z,2400
2016-10-15T09:19:37.848Z,2348
2016-10-15T09:20:18.386Z,2256
2016-10-15T09:20:58.918Z,2240
2016-10-15T09:21:39.466Z,1860
2016-10-15T09:22:20.011Z,1688
2016-10-15T09:23:00.557Z,1636
2016-10-15T09:23:41.107Z,1612
2016-10-15T09:24:21.647Z,1568
2016-10-15T09:25:02.188Z,1528
2016-10-15T09:25:42.735Z,1680
2016-10-15T09:26:23.296Z,1632
2016-10-15T09:27:03.870Z,1576
2016-10-15T09:27:44.414Z,1504
2016-10-15T09:28:24.968Z,1428
2016-10-15T09:31:01.840Z,2116
2016-10-15T09:31:42.497Z,2048
2016-10-15T09:32:23.114Z,2024
2016-10-15T09:33:03.703Z,2040
2016-10-15T09:33:44.278Z,2068
2016-10-15T09:34:24.860Z,2088
2016-10-15T09:35:05.444Z,2084
2016-10-15T09:35:46.034Z,2056
2016-10-15T09:36:26.608Z,2016
2016-10-15T09:37:07.197Z,1956
2016-10-15T09:37:47.785Z,1900
2016-10-15T09:38:28.371Z,1840
2016-10-15T09:39:08.952Z,1792
2016-10-15T09:39:49.540Z,1736
2016-10-15T09:40:30.120Z,1684
2016-10-15T09:41:10.698Z,1628
2016-10-15T09:41:51.280Z,1556
2016-10-15T09:42:31.872Z,1480
2016-10-15T09:43:12.455Z,1404
2016-10-15T09:43:53.034Z,1324
2016-10-15T09:44:33.616Z,1256
2016-10-15T09:45:14.206Z,1200
2016-10-15T09:45:54.788Z,1152
2016-10-15T09:46:35.375Z,1104
2016-10-15T09:47:15.964Z,1076
2016-10-15T09:47:56.544Z,1052
2016-10-15T09:48:37.077Z,1020
2016-10-15T09:49:17.606Z,988
2016-10-15T09:49:58.145Z,964
2016-10-15T09:50:38.677Z,948
2016-10-15T09:51:19.264Z,956
2016-10-15T09:51:59.846Z,980
2016-10-15T09:52:40.385Z,1028
2016-10-15T09:53:20.925Z,1080
2016-10-15T09:54:01.465Z,1132
2016-10-15T09:54:42.037Z,1192
2016-10-15T09:55:22.991Z,1248
2016-10-15T09:56:04.090Z,1324
2016-10-15T09:56:44.850Z,1472
2016-10-15T09:57:25.741Z,1636
2016-10-15T09:58:06.503Z,1760
2016-10-15T09:58:47.427Z,1848
2016-10-15T09:59:28.317Z,1964
2016-10-15T10:00:09.169Z,2316
2016-10-15T10:00:49.878Z,2256
2016-10-15T10:01:30.648Z,2424
2016-10-15T10:02:11.234Z,2576
2016-10-15T10:02:51.950Z,2748
2016-10-15T10:03:32.540Z,2900
2016-10-15T10:04:13.332Z,2972
2016-10-15T10:04:54.156Z,3032
2016-10-15T10:05:35.036Z,3028
2016-10-15T10:06:15.698Z,2972
2016-10-15T10:06:56.739Z,2976
2016-10-15T10:07:37.336Z,2896
2016-10-15T10:08:17.920Z,2800
2016-10-15T10:08:58.506Z,2748
2016-10-15T10:09:39.090Z,2716
2016-10-15T10:10:19.678Z,3236
2016-10-15T10:11:00.261Z,3188
2016-10-15T10:11:40.845Z,3200
2016-10-15T10:12:21.432Z,3176
2016-10-15T10:13:03.648Z,20
2016-10-15T10:13:44.235Z,96
2016-10-15T10:14:24.826Z,96
2016-10-15T10:15:06.153Z,56
2016-10-15T10:15:51.366Z,644
2016-10-15T10:16:37.219Z,84
2016-10-15T10:17:22.450Z,228
2016-10-15T10:18:07.011Z,16
2016-10-15T10:18:47.595Z,1028
2016-10-15T10:19:28.190Z,988
2016-10-15T10:20:08.768Z,968
2016-10-15T10:20:49.390Z,980
2016-10-15T10:21:29.964Z,1004
2016-10-15T10:22:10.540Z,992
2016-10-15T10:22:51.148Z,976
2016-10-15T10:23:31.727Z,980
2016-10-15T10:24:12.314Z,984
2016-10-15T10:24:52.920Z,972
2016-10-15T10:25:33.495Z,960
2016-10-15T10:26:14.077Z,972
2016-10-15T10:26:54.773Z,940
2016-10-15T10:27:35.368Z,920
2016-10-15T10:28:15.950Z,908
2016-10-15T10:28:56.532Z,916
2016-10-15T10:29:37.135Z,892
2016-10-15T10:30:17.718Z,872
2016-10-15T10:30:58.304Z,840
2016-10-15T10:31:38.893Z,820
2016-10-15T10:32:19.477Z,784
2016-10-15T10:33:00.070Z,768
2016-10-15T10:33:40.653Z,752
2016-10-15T10:34:21.229Z,744
2016-10-15T10:35:01.824Z,736
2016-10-15T10:35:42.407Z,756
2016-10-15T10:36:22.996Z,744
2016-10-15T10:37:03.578Z,732
2016-10-15T10:37:44.164Z,716
2016-10-15T10:38:24.752Z,712
2016-10-15T10:39:05.342Z,708
2016-10-15T10:39:45.930Z,708
2016-10-15T10:40:26.512Z,692
2016-10-15T10:41:07.094Z,692
2016-10-15T10:41:47.681Z,684
2016-10-15T10:42:28.268Z,668
2016-10-15T10:43:08.857Z,648
2016-10-15T10:43:49.439Z,620
2016-10-15T10:44:30.023Z,592
2016-10-15T10:45:10.609Z,576
2016-10-15T10:45:51.189Z,560
2016-10-15T10:46:31.774Z,552
2016-10-15T10:47:12.357Z,544
2016-10-15T10:47:52.930Z,540
2016-10-15T10:48:33.516Z,536
2016-10-15T10:49:14.105Z,532
2016-10-15T10:49:54.685Z,532
2016-10-15T10:50:35.267Z,528
2016-10-15T10:51:15.857Z,536
2016-10-15T10:51:56.448Z,536
2016-10-15T10:52:37.030Z,460
2016-10-15T10:53:17.875Z,484
2016-10-15T10:53:58.853Z,468
2016-10-15T10:54:39.700Z,464
2016-10-15T10:55:20.288Z,472
2016-10-15T10:56:01.075Z,484
2016-10-15T10:56:41.683Z,464
2016-10-15T10:57:22.254Z,464
2016-10-15T10:58:03.079Z,476
2016-10-15T10:58:43.666Z,420
2016-10-15T10:59:24.247Z,428
2016-10-15T11:00:05.090Z,444
2016-10-15T11:00:45.673Z,448
2016-10-15T11:01:26.255Z,496
2016-10-15T11:02:06.828Z,508
2016-10-15T11:02:47.406Z,524
2016-10-15T11:03:27.990Z,512
2016-10-15T11:04:08.581Z,528
2016-10-15T11:04:49.164Z,524
2016-10-15T11:05:29.744Z,524
2016-10-15T11:06:10.325Z,516
2016-10-15T11:06:50.909Z,512
2016-10-15T11:07:31.494Z,500
2016-10-15T11:08:12.127Z,492
2016-10-15T11:08:53.074Z,492
2016-10-15T11:09:33.847Z,496
2016-10-15T11:10:14.430Z,508
2016-10-15T11:10:55.185Z,528
2016-10-15T11:11:35.780Z,544
2016-10-15T11:12:16.367Z,576
2016-10-15T11:12:57.411Z,596
2016-10-15T11:13:38.001Z,608
2016-10-15T11:14:18.654Z,608
2016-10-15T11:14:59.242Z,612
2016-10-15T11:15:40.075Z,616
2016-10-15T11:16:20.779Z,620
2016-10-15T11:17:01.548Z,636
2016-10-15T11:17:42.137Z,656
2016-10-15T11:18:22.858Z,676
2016-10-15T11:19:03.510Z,708
2016-10-15T11:19:44.102Z,732
2016-10-15T11:20:24.685Z,752
2016-10-15T11:21:05.266Z,772
2016-10-15T11:21:45.853Z,780
2016-10-15T11:22:26.924Z,796
2016-10-15T11:23:07.904Z,808
2016-10-15T11:23:48.640Z,824
2016-10-15T11:24:29.217Z,840
2016-10-15T11:25:09.805Z,860
2016-10-15T11:25:50.386Z,864
2016-10-15T11:26:31.103Z,868
2016-10-15T11:27:11.689Z,880
2016-10-15T11:27:52.732Z,896
2016-10-15T11:28:33.310Z,896
2016-10-15T11:29:13.896Z,876
2016-10-15T11:29:54.486Z,856
2016-10-15T11:30:35.319Z,852
2016-10-15T11:31:15.995Z,844
2016-10-15T11:31:57.058Z,856
2016-10-15T11:32:38.312Z,856
2016-10-15T11:33:18.890Z,852
2016-10-15T11:33:59.479Z,836
2016-10-15T11:34:40.207Z,808
2016-10-15T11:35:20.799Z,784
2016-10-15T11:36:01.517Z,764
2016-10-15T11:36:42.342Z,752
2016-10-15T11:37:23.022Z,728
2016-10-15T11:38:03.733Z,688
2016-10-15T11:38:44.468Z,660
2016-10-15T11:39:25.238Z,644
2016-10-15T11:40:06.098Z,608
2016-10-15T11:40:46.685Z,592
2016-10-15T11:41:27.272Z,580
2016-10-15T11:42:07.857Z,564
2016-10-15T11:42:48.443Z,548
2016-10-15T11:43:29.035Z,516
2016-10-15T11:44:09.852Z,500
2016-10-15T11:44:50.446Z,492
2016-10-15T11:45:31.354Z,468
2016-10-15T11:46:12.289Z,452
2016-10-15T11:46:52.866Z,444
2016-10-15T11:47:33.747Z,460
2016-10-15T11:48:14.514Z,432
2016-10-15T11:48:55.104Z,392
2016-10-15T11:49:35.690Z,384
2016-10-15T11:50:16.455Z,384
2016-10-15T11:50:57.038Z,368
2016-10-15T11:51:37.845Z,372
2016-10-15T11:52:18.842Z,372
2016-10-15T11:52:59.594Z,364
2016-10-15T11:53:40.211Z,364
2016-10-15T11:54:20.944Z,368
2016-10-15T11:55:01.527Z,372
2016-10-15T11:55:42.110Z,376
2016-10-15T11:56:22.689Z,372
2016-10-15T11:57:03.433Z,364
2016-10-15T11:57:44.164Z,356
2016-10-15T11:58:24.749Z,348
2016-10-15T11:59:05.335Z,344
2016-10-15T11:59:46.143Z,340
2016-10-15T12:00:26.728Z,340
2016-10-15T12:01:07.534Z,336
2016-10-15T12:01:48.120Z,328
2016-10-15T12:02:28.711Z,332
2016-10-15T12:03:09.301Z,324
2016-10-15T12:03:49.905Z,328
2016-10-15T12:04:30.483Z,324
2016-10-15T12:05:11.288Z,320
2016-10-15T12:05:52.159Z,320
2016-10-15T12:06:32.937Z,324
2016-10-15T12:07:13.968Z,324
2016-10-15T12:07:54.555Z,320
2016-10-15T12:08:35.140Z,284
2016-10-15T12:09:15.994Z,304
2016-10-15T12:09:56.927Z,320
2016-10-15T12:10:37.717Z,316
2016-10-15T12:11:18.306Z,312
2016-10-15T12:11:58.914Z,312
2016-10-15T12:12:39.740Z,308
2016-10-15T12:13:20.625Z,312
2016-10-15T12:14:01.421Z,316
2016-10-15T12:14:42.179Z,320
2016-10-15T12:15:22.831Z,316
2016-10-15T12:16:03.417Z,320
2016-10-15T12:16:44.315Z,320
2016-10-15T12:17:24.900Z,320
2016-10-15T12:18:05.837Z,320
2016-10-15T12:18:46.827Z,320
2016-10-15T12:19:28.087Z,316
2016-10-15T12:20:08.869Z,316
2016-10-15T12:20:49.518Z,320
2016-10-15T12:21:30.196Z,316
2016-10-15T12:22:11.042Z,312
2016-10-15T12:22:51.628Z,324
2016-10-15T12:23:32.218Z,332
2016-10-15T12:24:12.881Z,336
2016-10-15T12:24:53.469Z,320
2016-10-15T12:25:34.042Z,332
2016-10-15T12:26:14.797Z,336
2016-10-15T12:26:55.807Z,328
2016-10-15T12:27:36.658Z,320
2016-10-15T12:28:17.476Z,292
2016-10-15T12:28:58.449Z,276
2016-10-15T12:29:39.262Z,276
2016-10-15T12:30:19.851Z,280
2016-10-15T12:31:00.414Z,284
2016-10-15T12:31:40.997Z,288
2016-10-15T12:32:21.566Z,304
2016-10-15T12:33:02.152Z,308
2016-10-15T12:33:42.739Z,296
2016-10-15T12:34:23.325Z,292
2016-10-15T12:35:03.916Z,292
2016-10-15T12:35:44.508Z,284
2016-10-15T12:36:25.102Z,252
2016-10-15T12:37:05.682Z,284
2016-10-15T12:37:46.334Z,276
2016-10-15T12:38:26.924Z,272
2016-10-15T12:39:07.517Z,272
2016-10-15T12:39:48.102Z,280
2016-10-15T12:40:28.687Z,288
2016-10-15T12:41:09.268Z,300
2016-10-15T12:41:49.853Z,316
2016-10-15T12:42:30.436Z,344
2016-10-15T12:43:11.024Z,360
2016-10-15T12:43:51.610Z,388
2016-10-15T12:44:32.212Z,404
2016-10-15T12:45:12.786Z,420
2016-10-15T12:45:53.381Z,440
2016-10-15T12:46:33.970Z,464
2016-10-15T12:47:14.565Z,496
2016-10-15T12:47:55.144Z,520
2016-10-15T12:48:35.734Z,548
2016-10-15T12:49:16.323Z,564
2016-10-15T12:49:56.912Z,580
2016-10-15T12:50:37.502Z,600
2016-10-15T12:51:18.083Z,608
2016-10-15T12:51:58.675Z,604
2016-10-15T12:52:39.260Z,608
2016-10-15T12:53:19.833Z,612
2016-10-15T12:54:00.418Z,620
2016-10-15T12:54:41.006Z,616
2016-10-15T12:55:21.593Z,612
2016-10-15T12:56:02.176Z,608
2016-10-15T12:56:42.753Z,616
2016-10-15T12:57:23.348Z,620
2016-10-15T12:58:03.933Z,632
2016-10-15T12:58:44.517Z,632
2016-10-15T12:59:25.111Z,624
2016-10-15T13:00:05.708Z,612
2016-10-15T13:00:46.295Z,600
2016-10-15T13:01:26.897Z,580
2016-10-15T13:02:07.486Z,576
2016-10-15T13:02:48.084Z,576
2016-10-15T13:03:28.675Z,580
2016-10-15T13:04:09.250Z,572
2016-10-15T13:04:49.842Z,568
2016-10-15T13:05:30.432Z,556
2016-10-15T13:06:11.030Z,552
2016-10-15T13:06:51.624Z,564
2016-10-15T13:07:32.197Z,568
2016-10-15T13:08:12.790Z,548
2016-10-15T13:08:53.376Z,556
2016-10-15T13:09:33.964Z,548
2016-10-15T13:10:14.577Z,532
2016-10-15T13:10:55.165Z,528
2016-10-15T13:11:35.754Z,524
2016-10-15T13:12:16.326Z,532
2016-10-15T13:12:56.913Z,536
2016-10-15T13:13:37.507Z,532
2016-10-15T13:14:18.142Z,544
2016-10-15T13:15:00.063Z,548
2016-10-15T13:15:41.895Z,528
2016-10-15T13:16:23.404Z,508
2016-10-15T13:17:04.404Z,488
2016-10-15T13:17:45.289Z,476
2016-10-15T13:18:26.172Z,476
2016-10-15T13:19:07.071Z,484
2016-10-15T13:19:47.829Z,492
2016-10-15T13:20:28.416Z,492
2016-10-15T13:21:08.999Z,492
2016-10-15T13:21:49.588Z,476
2016-10-15T13:22:30.219Z,464
2016-10-15T13:23:10.806Z,468
2016-10-15T13:23:51.398Z,464
2016-10-15T13:24:31.979Z,460
2016-10-15T13:25:12.561Z,452
2016-10-15T13:25:53.153Z,456
2016-10-15T13:26:33.820Z,456
2016-10-15T13:27:14.425Z,448
2016-10-15T13:27:55.003Z,440
2016-10-15T13:28:35.595Z,428
2016-10-15T13:29:16.181Z,420
2016-10-15T13:29:56.761Z,428
2016-10-15T13:30:37.328Z,436
2016-10-15T13:31:17.914Z,440
2016-10-15T13:31:58.500Z,448
2016-10-15T13:32:39.089Z,440
2016-10-15T13:33:19.678Z,420
2016-10-15T13:34:00.266Z,416
2016-10-15T13:34:40.856Z,412
2016-10-15T13:35:21.443Z,400
2016-10-15T13:36:02.039Z,392
2016-10-15T13:36:42.625Z,392
2016-10-15T13:37:23.205Z,392
2016-10-15T13:38:03.783Z,396
2016-10-15T13:38:44.369Z,408
2016-10-15T13:39:24.950Z,420
2016-10-15T13:40:05.541Z,424
2016-10-15T13:40:46.121Z,428
2016-10-15T13:41:26.697Z,436
2016-10-15T13:42:07.278Z,432
2016-10-15T13:42:48.105Z,412
2016-10-15T13:43:28.951Z,404
2016-10-15T13:44:09.576Z,392
2016-10-15T13:44:50.393Z,388
2016-10-15T13:45:31.182Z,388
2016-10-15T13:46:12.097Z,388
2016-10-15T13:46:53.098Z,384
2016-10-15T13:47:33.834Z,368
2016-10-15T13:48:14.525Z,352
2016-10-15T13:48:55.170Z,348
2016-10-15T13:49:36.218Z,368
2016-10-15T13:50:17.230Z,384
2016-10-15T13:50:58.063Z,384
2016-10-15T13:51:38.690Z,380
2016-10-15T13:52:19.356Z,376
2016-10-15T13:52:59.947Z,368
2016-10-15T13:53:40.532Z,376
2016-10-15T13:54:21.121Z,388
2016-10-15T13:55:01.706Z,400
2016-10-15T13:55:42.309Z,396
2016-10-15T13:56:22.896Z,396
2016-10-15T13:57:03.485Z,376
2016-10-15T13:57:44.072Z,364
2016-10-15T13:58:24.666Z,356
2016-10-15T13:59:05.268Z,348
2016-10-15T13:59:45.857Z,340
2016-10-15T14:00:26.440Z,336
2016-10-15T14:01:07.046Z,332
2016-10-15T14:01:47.638Z,328
2016-10-15T14:02:28.219Z,328
2016-10-15T14:03:08.806Z,172
2016-10-15T14:03:49.862Z,320
2016-10-15T14:04:30.448Z,312
2016-10-15T14:05:11.029Z,308
2016-10-15T14:05:51.617Z,300
2016-10-15T14:06:32.202Z,300
2016-10-15T14:07:13.002Z,308
2016-10-15T14:07:53.590Z,316
2016-10-15T14:08:34.171Z,324
2016-10-15T14:09:14.764Z,324
2016-10-15T14:09:55.343Z,328
2016-10-15T14:10:35.914Z,324
2016-10-15T14:11:16.505Z,320
2016-10-15T14:11:57.091Z,316
2016-10-15T14:12:37.671Z,308
2016-10-15T14:13:18.343Z,308
2016-10-15T14:13:58.940Z,312
2016-10-15T14:14:39.529Z,320
2016-10-15T14:15:20.117Z,324
2016-10-15T14:16:00.693Z,320
2016-10-15T14:16:41.283Z,312
2016-10-15T14:17:21.877Z,304
2016-10-15T14:18:02.463Z,296
2016-10-15T14:18:43.297Z,296
2016-10-15T14:19:23.885Z,296
2016-10-15T14:20:04.543Z,292
2016-10-15T14:20:45.314Z,284